Time;durP1;ratioP1;P1;durP2;ratioP2;P2;SDS_P1;SDS_P2;PMS_P1;PMS_P2;Temp;Humidity;BMP_temperature;BMP_pressure;BME280_temperature;BME280_humidity;BME280_pressure;Samples;Min_cycle;Max_cycle;Signal;HPM_P1;HPM_P2
2021/08/20 00:01:54;;;;;;;;;;;15.90;99.90;;;;;;5075109;28;19925;-83
2021/08/20 00:04:21;;;;;;;;;;;15.80;99.90;;;;;;5074964;28;19935;-83
2021/08/20 00:06:48;;;;;;;;;;;15.90;99.90;;;;;;5074826;28;20350;-83
2021/08/20 00:09:15;;;;;;;;;;;15.90;99.90;;;;;;5074855;28;20348;-84
2021/08/20 00:11:42;;;;;;;;;;;15.90;99.90;;;;;;5074981;28;19924;-83
2021/08/20 00:14:10;;;;;;;;;;;15.90;99.90;;;;;;5074786;28;19931;-83
2021/08/20 00:16:37;;;;;;;;;;;15.90;99.90;;;;;;5074881;28;19936;-84
2021/08/20 00:19:04;;;;;;;;;;;15.90;99.90;;;;;;5074761;28;19928;-83
2021/08/20 00:21:30;;;;;;;;;;;15.90;99.90;;;;;;5074735;28;20345;-83
2021/08/20 00:23:57;;;;;;;;;;;15.90;99.90;;;;;;5074645;28;19924;-83
2021/08/20 00:26:24;;;;;;;;;;;15.90;99.90;;;;;;5074788;28;19924;-83
2021/08/20 00:28:51;;;;;;;;;;;15.90;99.90;;;;;;5074901;28;20244;-82
2021/08/20 00:31:19;;;;;;;;;;;15.90;99.90;;;;;;5074633;28;20390;-83
2021/08/20 00:33:46;;;;;;;;;;;15.80;99.90;;;;;;5074624;28;19935;-83
2021/08/20 00:36:13;;;;;;;;;;;15.80;99.90;;;;;;5074798;28;19951;-83
2021/08/20 00:38:39;;;;;;;;;;;15.90;99.90;;;;;;5074541;28;20383;-82
2021/08/20 00:41:06;;;;;;;;;;;15.80;99.90;;;;;;5074524;28;19924;-83
2021/08/20 00:43:33;;;;;;;;;;;15.90;99.90;;;;;;5074607;28;19928;-83
2021/08/20 00:46:00;;;;;;;;;;;15.80;99.90;;;;;;5074445;28;20410;-83
2021/08/20 00:48:29;;;;;;;;;;;15.80;99.90;;;;;;5074469;28;20349;-83
2021/08/20 00:50:58;;;;;;;;;;;15.80;99.90;;;;;;5074539;28;20028;-83
2021/08/20 00:53:26;;;;;;;;;;;15.80;99.90;;;;;;5074599;28;19924;-83
2021/08/20 00:55:54;;;;;;;;;;;15.90;99.90;;;;;;5074389;28;19924;-84
2021/08/20 00:58:22;;;;;;;;;;;15.90;99.90;;;;;;5074252;28;20261;-84
2021/08/20 01:00:51;;;;;;;;;;;15.90;99.90;;;;;;5074143;28;20264;-83
2021/08/20 01:03:18;;;;;;;;;;;15.90;99.90;;;;;;5074417;28;19924;-83
2021/08/20 01:05:51;;;;;;;;;;;15.80;99.90;;;;;;5074548;28;19924;-84
2021/08/20 01:08:20;;;;;;;;;;;15.80;99.90;;;;;;5076955;28;19925;-83
2021/08/20 01:10:48;;;;;;;;;;;15.90;99.90;;;;;;5077998;28;19932;-82
2021/08/20 01:13:16;;;;;;;;;;;15.90;99.90;;;;;;5077796;28;19924;-83
2021/08/20 01:15:45;;;;;;;;;;;15.90;99.90;;;;;;5077823;28;20400;-83
2021/08/20 01:18:13;;;;;;;;;;;15.90;99.90;;;;;;5077774;28;20267;-83
2021/08/20 01:20:41;;;;;;;;;;;15.90;99.90;;;;;;5078069;28;20245;-83
2021/08/20 01:23:10;;;;;;;;;;;15.90;99.90;;;;;;5077705;28;19924;-83
2021/08/20 01:25:38;;;;;;;;;;;15.90;99.90;;;;;;5077803;28;20264;-83
2021/08/20 01:28:05;;;;;;;;;;;15.90;99.90;;;;;;5077492;28;19925;-83
2021/08/20 01:30:32;;;;;;;;;;;15.90;99.90;;;;;;5077472;28;19935;-83
2021/08/20 01:32:59;;;;;;;;;;;15.90;99.90;;;;;;5077680;28;19925;-83
2021/08/20 01:35:26;;;;;;;;;;;15.90;99.90;;;;;;5077821;28;20283;-83
2021/08/20 01:37:53;;;;;;;;;;;15.80;99.90;;;;;;5077485;28;19931;-83
2021/08/20 01:40:20;;;;;;;;;;;15.80;99.90;;;;;;5077690;28;19924;-83
2021/08/20 01:42:48;;;;;;;;;;;15.80;99.90;;;;;;5077387;28;20388;-83
2021/08/20 01:45:15;;;;;;;;;;;15.80;99.90;;;;;;5077200;28;19925;-83
2021/08/20 01:47:42;;;;;;;;;;;15.80;99.90;;;;;;5077442;28;19924;-83
2021/08/20 01:50:10;;;;;;;;;;;15.70;99.90;;;;;;5076734;28;20379;-83
2021/08/20 01:52:37;;;;;;;;;;;15.70;99.90;;;;;;5077215;28;20356;-83
2021/08/20 01:55:04;;;;;;;;;;;15.70;99.90;;;;;;5077118;28;19928;-83
2021/08/20 01:57:31;;;;;;;;;;;15.70;99.90;;;;;;5077008;28;19924;-82
2021/08/20 01:59:59;;;;;;;;;;;15.70;99.90;;;;;;5076894;28;19925;-83
2021/08/20 02:02:28;;;;;;;;;;;15.70;99.90;;;;;;5076454;28;20197;-83
2021/08/20 02:04:55;;;;;;;;;;;15.70;99.90;;;;;;5076893;28;19924;-83
2021/08/20 02:07:21;;;;;;;;;;;15.70;99.90;;;;;;5076891;28;19924;-83
2021/08/20 02:09:48;;;;;;;;;;;15.70;99.90;;;;;;5076977;28;19928;-83
2021/08/20 02:12:15;;;;;;;;;;;15.70;99.90;;;;;;5076719;28;20445;-83
2021/08/20 02:14:42;;;;;;;;;;;15.70;99.90;;;;;;5076892;28;19924;-83
2021/08/20 02:17:10;;;;;;;;;;;15.70;99.90;;;;;;5076915;28;19946;-83
2021/08/20 02:19:37;;;;;;;;;;;15.60;99.90;;;;;;5076543;28;19935;-83
2021/08/20 02:22:04;;;;;;;;;;;15.60;99.90;;;;;;5076464;28;19972;-83
2021/08/20 02:24:31;;;;;;;;;;;15.60;99.90;;;;;;5076567;28;19925;-83
2021/08/20 02:26:58;;;;;;;;;;;15.70;99.90;;;;;;5078512;28;19924;-84
2021/08/20 02:29:24;;;;;;;;;;;15.60;99.90;;;;;;5079053;28;19925;-84
2021/08/20 02:31:51;;;;;;;;;;;15.60;99.90;;;;;;5077230;28;19932;-80
2021/08/20 02:34:19;;;;;;;;;;;15.60;99.90;;;;;;5078675;28;19928;-80
2021/08/20 02:36:46;;;;;;;;;;;15.60;99.90;;;;;;5076871;28;20340;-85
2021/08/20 02:39:13;;;;;;;;;;;15.60;99.90;;;;;;5076498;28;19924;-78
2021/08/20 02:41:40;;;;;;;;;;;15.60;99.90;;;;;;5076654;28;19925;-83
2021/08/20 02:44:07;;;;;;;;;;;15.60;99.90;;;;;;5076328;28;19925;-83
2021/08/20 02:46:34;;;;;;;;;;;15.60;99.90;;;;;;5075935;28;20351;-83
2021/08/20 02:49:00;;;;;;;;;;;15.60;99.90;;;;;;5076146;28;20353;-83
2021/08/20 02:51:29;;;;;;;;;;;15.60;99.90;;;;;;5076021;28;19928;-81
2021/08/20 02:53:55;;;;;;;;;;;15.60;99.90;;;;;;5075938;28;19925;-80
2021/08/20 02:56:22;;;;;;;;;;;15.60;99.90;;;;;;5076056;28;19925;-81
2021/08/20 02:58:49;;;;;;;;;;;15.60;99.90;;;;;;5075817;28;19939;-81
2021/08/20 03:01:16;;;;;;;;;;;15.60;99.90;;;;;;5075747;28;20374;-80
2021/08/20 03:03:43;;;;;;;;;;;15.60;99.90;;;;;;5075754;28;19935;-81
2021/08/20 03:06:10;;;;;;;;;;;15.60;99.90;;;;;;5075987;28;19924;-82
2021/08/20 03:08:38;;;;;;;;;;;15.60;99.90;;;;;;5075699;28;19932;-80
2021/08/20 03:11:05;;;;;;;;;;;15.60;99.90;;;;;;5075699;28;20379;-80
2021/08/20 03:13:32;;;;;;;;;;;15.60;99.90;;;;;;5075563;28;19924;-80
2021/08/20 03:15:59;;;;;;;;;;;15.60;99.90;;;;;;5075616;28;19925;-80
2021/08/20 03:18:26;;;;;;;;;;;15.60;99.90;;;;;;5075477;28;20379;-79
2021/08/20 03:20:54;;;;;;;;;;;15.60;99.90;;;;;;5075373;28;19924;-80
2021/08/20 03:23:22;;;;;;;;;;;15.60;99.90;;;;;;5075470;28;19924;-80
2021/08/20 03:25:51;;;;;;;;;;;15.60;99.90;;;;;;5075340;28;19932;-80
2021/08/20 03:28:19;;;;;;;;;;;15.60;99.90;;;;;;5075577;28;19928;-79
2021/08/20 03:30:47;;;;;;;;;;;15.60;99.90;;;;;;5075047;28;19924;-80
2021/08/20 03:33:15;;;;;;;;;;;15.60;99.90;;;;;;5075422;28;20398;-80
2021/08/20 03:35:44;;;;;;;;;;;15.60;99.90;;;;;;5075566;28;19935;-80
2021/08/20 03:38:11;;;;;;;;;;;15.60;99.90;;;;;;5075286;28;19924;-80
2021/08/20 03:40:40;;;;;;;;;;;15.60;99.90;;;;;;5075530;28;19924;-80
2021/08/20 03:43:08;;;;;;;;;;;15.50;99.90;;;;;;5074888;28;19933;-80
2021/08/20 03:45:35;;;;;;;;;;;15.50;99.90;;;;;;5075217;28;19939;-80
2021/08/20 03:48:01;;;;;;;;;;;15.50;99.90;;;;;;5074288;28;20268;-80
2021/08/20 03:50:28;;;;;;;;;;;15.50;99.90;;;;;;5075052;28;19924;-80
2021/08/20 03:52:55;;;;;;;;;;;15.50;99.90;;;;;;5075346;28;19935;-81
2021/08/20 03:55:22;;;;;;;;;;;15.50;99.90;;;;;;5075304;28;19943;-80
2021/08/20 03:57:49;;;;;;;;;;;15.50;99.90;;;;;;5074822;28;20374;-79
2021/08/20 04:00:19;;;;;;;;;;;15.50;99.90;;;;;;5074743;28;19925;-80
2021/08/20 04:02:47;;;;;;;;;;;15.50;99.90;;;;;;5064679;28;19924;-80
2021/08/20 04:05:15;;;;;;;;;;;15.40;99.90;;;;;;5065493;28;19924;-80
2021/08/20 04:07:44;;;;;;;;;;;15.40;99.90;;;;;;5065037;28;19925;-80
2021/08/20 04:10:12;;;;;;;;;;;15.40;99.90;;;;;;5064974;28;20337;-79
2021/08/20 04:12:39;;;;;;;;;;;15.40;99.90;;;;;;5066904;28;19998;-79
2021/08/20 04:15:09;;;;;;;;;;;15.40;99.90;;;;;;5075009;28;19924;-80
2021/08/20 04:17:38;;;;;;;;;;;15.40;99.90;;;;;;5074821;28;19924;-80
2021/08/20 04:20:07;;;;;;;;;;;15.40;99.90;;;;;;5074950;28;19925;-81
2021/08/20 04:22:36;;;;;;;;;;;15.30;99.90;;;;;;5074840;28;20340;-81
2021/08/20 04:25:03;;;;;;;;;;;15.30;99.90;;;;;;5074844;28;19924;-80
2021/08/20 04:27:34;;;;;;;;;;;15.40;99.90;;;;;;5074728;28;19932;-80
2021/08/20 04:30:00;;;;;;;;;;;15.30;99.90;;;;;;5074654;28;20345;-80
2021/08/20 04:32:28;;;;;;;;;;;15.30;99.90;;;;;;5075011;28;19924;-80
2021/08/20 04:34:57;;;;;;;;;;;15.30;99.90;;;;;;5075008;28;19935;-81
2021/08/20 04:37:24;;;;;;;;;;;15.30;99.90;;;;;;5074555;28;19924;-80
2021/08/20 04:39:50;;;;;;;;;;;15.30;99.90;;;;;;5074522;28;20163;-81
2021/08/20 04:42:17;;;;;;;;;;;15.30;99.90;;;;;;5075189;28;19951;-80
2021/08/20 04:44:44;;;;;;;;;;;15.30;99.90;;;;;;5078344;28;20390;-83
2021/08/20 04:47:11;;;;;;;;;;;15.30;99.90;;;;;;5078295;28;20374;-83
2021/08/20 04:49:38;;;;;;;;;;;15.30;99.90;;;;;;5078386;28;19925;-83
2021/08/20 04:52:07;;;;;;;;;;;15.30;99.90;;;;;;5078507;28;19934;-83
2021/08/20 04:54:33;;;;;;;;;;;15.30;99.90;;;;;;5078698;28;19924;-82
2021/08/20 04:57:00;;;;;;;;;;;15.30;99.90;;;;;;5078277;28;19924;-83
2021/08/20 04:59:27;;;;;;;;;;;15.30;99.90;;;;;;5078030;28;19924;-83
2021/08/20 05:01:54;;;;;;;;;;;15.30;99.90;;;;;;5078205;28;19931;-82
2021/08/20 05:04:21;;;;;;;;;;;15.30;99.90;;;;;;5078267;28;19924;-82
2021/08/20 05:06:47;;;;;;;;;;;15.30;99.90;;;;;;5078229;28;19928;-82
2021/08/20 05:09:16;;;;;;;;;;;15.30;99.90;;;;;;5077974;28;19924;-82
2021/08/20 05:11:42;;;;;;;;;;;15.30;99.90;;;;;;5078104;28;19924;-83
2021/08/20 05:14:09;;;;;;;;;;;15.30;99.90;;;;;;5077816;28;20414;-82
2021/08/20 05:16:36;;;;;;;;;;;15.30;99.90;;;;;;5078071;28;19929;-83
2021/08/20 05:19:03;;;;;;;;;;;15.30;99.90;;;;;;5077864;28;19931;-82
2021/08/20 05:21:30;;;;;;;;;;;15.30;99.90;;;;;;5077820;28;19925;-82
2021/08/20 05:23:57;;;;;;;;;;;15.30;99.90;;;;;;5077962;28;20026;-83
2021/08/20 05:26:26;;;;;;;;;;;15.20;99.90;;;;;;5077734;28;19947;-82
2021/08/20 05:28:52;;;;;;;;;;;15.20;99.90;;;;;;5077653;28;19932;-82
2021/08/20 05:31:19;;;;;;;;;;;15.30;99.90;;;;;;5077649;28;19924;-82
2021/08/20 05:33:46;;;;;;;;;;;15.30;99.90;;;;;;5077629;28;19936;-83
2021/08/20 05:36:13;;;;;;;;;;;15.30;99.90;;;;;;5077685;28;19925;-82
2021/08/20 05:38:40;;;;;;;;;;;15.30;99.90;;;;;;5077812;28;19924;-82
2021/08/20 05:41:07;;;;;;;;;;;15.30;99.90;;;;;;5077545;28;20027;-82
2021/08/20 05:43:35;;;;;;;;;;;15.30;99.90;;;;;;5077597;28;19931;-82
2021/08/20 05:46:02;;;;;;;;;;;15.30;99.90;;;;;;5077272;28;19925;-82
2021/08/20 05:48:28;;;;;;;;;;;15.30;99.90;;;;;;5077321;28;20022;-82
2021/08/20 05:50:55;;;;;;;;;;;15.30;99.90;;;;;;5077330;28;19924;-83
2021/08/20 05:53:22;;;;;;;;;;;15.30;99.90;;;;;;5076924;28;19925;-82
2021/08/20 05:55:49;;;;;;;;;;;15.30;99.90;;;;;;5077160;28;19943;-82
2021/08/20 05:58:16;;;;;;;;;;;15.30;99.90;;;;;;5074690;28;19935;-82
2021/08/20 06:00:44;;;;;;;;;;;15.40;99.90;;;;;;5077093;28;19924;-83
2021/08/20 06:03:11;;;;;;;;;;;15.30;99.90;;;;;;5077200;28;19924;-83
2021/08/20 06:05:39;;;;;;;;;;;15.40;99.90;;;;;;5077262;28;20027;-82
2021/08/20 06:08:06;;;;;;;;;;;15.40;99.90;;;;;;5076903;28;20260;-83
2021/08/20 06:10:33;;;;;;;;;;;15.40;99.90;;;;;;5076754;28;19924;-83
2021/08/20 06:13:00;;;;;;;;;;;15.40;99.90;;;;;;5076904;28;19925;-83
2021/08/20 06:15:26;;;;;;;;;;;15.40;99.90;;;;;;5077132;28;19925;-82
2021/08/20 06:17:55;;;;;;;;;;;15.40;99.90;;;;;;5076829;28;20345;-83
2021/08/20 06:20:21;;;;;;;;;;;15.50;99.90;;;;;;5076643;28;19931;-82
2021/08/20 06:22:48;;;;;;;;;;;15.40;99.90;;;;;;5076853;28;19932;-82
2021/08/20 06:25:15;;;;;;;;;;;15.50;99.90;;;;;;5076617;28;20344;-82
2021/08/20 06:27:42;;;;;;;;;;;15.60;99.90;;;;;;5076421;28;19931;-82
2021/08/20 06:30:09;;;;;;;;;;;15.60;99.90;;;;;;5076677;28;19925;-82
2021/08/20 06:32:36;;;;;;;;;;;15.70;99.90;;;;;;5076616;28;19935;-82
2021/08/20 06:35:05;;;;;;;;;;;15.70;99.90;;;;;;5076343;28;19924;-81
2021/08/20 06:37:32;;;;;;;;;;;15.80;99.90;;;;;;5076280;28;19925;-82
2021/08/20 06:39:58;;;;;;;;;;;15.90;99.90;;;;;;5076530;28;19928;-82
2021/08/20 06:42:25;;;;;;;;;;;16.00;99.90;;;;;;5076336;28;19935;-82
2021/08/20 06:44:52;;;;;;;;;;;16.10;99.90;;;;;;5076238;28;19925;-82
2021/08/20 06:47:19;;;;;;;;;;;16.20;99.90;;;;;;5075992;28;20341;-82
2021/08/20 06:49:46;;;;;;;;;;;16.20;99.90;;;;;;5076036;28;19924;-82
2021/08/20 06:52:14;;;;;;;;;;;16.30;99.90;;;;;;5075901;28;20360;-82
2021/08/20 06:54:41;;;;;;;;;;;16.30;99.90;;;;;;5076259;28;19925;-82
2021/08/20 06:57:07;;;;;;;;;;;16.40;99.90;;;;;;5076009;28;20249;-82
2021/08/20 06:59:34;;;;;;;;;;;16.40;99.90;;;;;;5075767;28;19935;-82
2021/08/20 07:02:01;;;;;;;;;;;16.50;99.90;;;;;;5076043;28;19924;-82
2021/08/20 07:04:28;;;;;;;;;;;16.60;99.90;;;;;;5075306;28;20272;-82
2021/08/20 07:06:55;;;;;;;;;;;16.70;99.90;;;;;;5075648;28;19924;-82
2021/08/20 07:09:24;;;;;;;;;;;16.70;99.90;;;;;;5075979;28;19924;-81
2021/08/20 07:11:51;;;;;;;;;;;16.80;99.90;;;;;;5075700;28;19924;-82
2021/08/20 07:14:17;;;;;;;;;;;16.90;99.90;;;;;;5075724;28;20374;-82
2021/08/20 07:16:44;;;;;;;;;;;17.00;99.90;;;;;;5075667;28;19924;-82
2021/08/20 07:19:12;;;;;;;;;;;17.00;99.90;;;;;;5075446;28;19981;-82
2021/08/20 07:21:40;;;;;;;;;;;17.10;99.90;;;;;;5075498;28;19936;-82
2021/08/20 07:24:09;;;;;;;;;;;17.30;99.90;;;;;;5075524;28;19924;-81
2021/08/20 07:26:38;;;;;;;;;;;18.20;99.90;;;;;;5075458;28;19924;-81
2021/08/20 07:29:05;;;;;;;;;;;19.60;99.90;;;;;;5075436;28;19924;-81
2021/08/20 07:31:33;;;;;;;;;;;21.10;99.90;;;;;;5075426;28;19925;-81
2021/08/20 07:34:00;;;;;;;2.50;1.33;;;22.20;99.90;;;;;;5073776;28;20406;-82
2021/08/20 07:36:27;;;;;;;2.10;1.17;;;22.40;99.90;;;;;;5075120;28;20048;-80
2021/08/20 07:38:54;;;;;;;1.48;1.00;;;22.80;99.90;;;;;;5074847;28;20052;-81
2021/08/20 07:41:21;;;;;;;1.42;1.02;;;22.50;99.90;;;;;;5074840;28;20066;-80
2021/08/20 07:43:50;;;;;;;1.77;1.00;;;22.10;99.90;;;;;;5074186;28;20475;-80
2021/08/20 07:46:17;;;;;;;2.22;1.13;;;22.70;99.90;;;;;;5074876;28;20052;-81
2021/08/20 07:48:44;;;;;;;1.98;1.25;;;24.10;99.90;;;;;;5074714;28;20449;-81
2021/08/20 07:51:11;;;;;;;1.58;1.00;;;25.40;99.90;;;;;;5074933;28;20048;-81
2021/08/20 07:53:38;;;;;;;1.75;0.85;;;26.80;99.90;;;;;;5074830;28;20075;-81
2021/08/20 07:56:05;;;;;;;1.73;1.02;;;27.40;99.90;;;;;;5074719;28;20055;-81
2021/08/20 07:58:32;;;;;;;1.30;0.80;;;27.10;99.90;;;;;;5074508;28;20063;-81
2021/08/20 08:01:01;;;;;;;2.22;1.13;;;25.80;99.90;;;;;;5074795;28;20048;-81
2021/08/20 08:03:29;;;;;;;3.45;0.90;;;24.30;99.90;;;;;;5074590;28;20048;-81
2021/08/20 08:05:56;;;;;;;3.20;1.10;;;22.90;99.90;;;;;;5074552;28;20083;-81
2021/08/20 08:08:23;;;;;;;1.77;1.08;;;21.80;99.90;;;;;;5074764;28;20122;-81
2021/08/20 08:10:50;;;;;;;2.95;1.30;;;21.00;99.90;;;;;;5074558;28;20056;-81
2021/08/20 08:13:17;;;;;;;5.97;1.08;;;20.40;99.90;;;;;;5074349;28;20457;-81
2021/08/20 08:15:44;;;;;;;2.13;1.15;;;20.00;99.90;;;;;;5074656;28;20388;-81
2021/08/20 08:18:13;;;;;;;6.63;1.65;;;19.70;99.90;;;;;;5078576;28;20061;-81
2021/08/20 08:20:42;;;;;;;5.35;1.40;;;19.40;99.90;;;;;;5078504;28;20053;-82
2021/08/20 08:23:10;;;;;;;2.08;1.17;;;19.30;99.90;;;;;;5078376;28;20366;-82
2021/08/20 08:25:39;;;;;;;2.05;1.10;;;19.20;99.90;;;;;;5078618;28;20075;-82
2021/08/20 08:28:07;;;;;;;3.75;1.23;;;19.10;99.90;;;;;;5078352;28;20044;-81
2021/08/20 08:30:37;;;;;;;3.92;1.40;;;19.10;99.90;;;;;;5078059;28;20053;-82
2021/08/20 08:33:05;;;;;;;3.25;1.70;;;19.00;99.90;;;;;;5078507;28;20049;-81
2021/08/20 08:35:35;;;;;;;;;;;19.00;99.90;;;;;;5078905;28;20052;-82
2021/08/20 08:38:04;;;;;;;;;;;19.10;99.90;;;;;;5078688;28;20255;-82
2021/08/20 08:40:32;;;;;;;;;;;19.10;99.90;;;;;;5078569;28;19920;-81
2021/08/20 08:43:00;;;;;;;;;;;19.00;99.90;;;;;;5078425;28;19920;-82
2021/08/20 08:45:28;;;;;;;;;;;18.90;99.90;;;;;;5078811;28;19932;-82
2021/08/20 08:47:57;;;;;;;;;;;18.90;99.90;;;;;;5078698;28;19932;-82
2021/08/20 08:50:25;;;;;;;;;;;18.80;99.90;;;;;;5078620;28;20299;-82
2021/08/20 08:52:53;;;;;;;;;;;18.70;99.90;;;;;;5078332;28;19924;-82
2021/08/20 08:55:21;;;;;;;;;;;18.60;99.90;;;;;;5078198;28;19939;-82
2021/08/20 08:57:50;;;;;;;;;;;18.60;99.90;;;;;;5078149;28;19928;-82
2021/08/20 09:00:28;;;;;;;;;;;18.60;99.90;;;;;;5078070;28;19947;-82
2021/08/20 09:02:56;;;;;;;;;;;18.60;99.90;;;;;;5078147;28;19924;-82
2021/08/20 09:05:22;;;;;;;;;;;18.60;99.90;;;;;;5078051;28;19936;-82
2021/08/20 09:07:50;;;;;;;;;;;18.60;99.90;;;;;;5077890;28;19936;-82
2021/08/20 09:10:20;;;;;;;;;;;18.60;99.90;;;;;;5078204;28;19925;-82
2021/08/20 09:12:55;;;;;;;;;;;18.60;99.90;;;;;;5078212;28;19925;-82
2021/08/20 09:15:24;;;;;;;;;;;18.60;99.90;;;;;;5077925;28;19934;-82
2021/08/20 09:17:55;;;;;;;;;;;18.60;99.90;;;;;;5077896;28;19936;-82
2021/08/20 09:20:23;;;;;;;;;;;18.60;99.90;;;;;;5077974;28;20336;-82
2021/08/20 09:22:52;;;;;;;;;;;18.70;99.90;;;;;;5077958;28;20022;-82
2021/08/20 09:25:37;;;;;;;;;;;18.60;99.90;;;;;;5077775;28;19938;-82
2021/08/20 09:28:14;;;;;;;;;;;18.60;99.90;;;;;;5076855;28;20359;-82
2021/08/20 09:30:45;;;;;;;;;;;18.60;99.90;;;;;;5077630;28;20260;-82
2021/08/20 09:33:13;;;;;;;;;;;18.60;99.90;;;;;;5077676;28;19924;-82
2021/08/20 09:35:41;;;;;;;;;;;18.60;99.90;;;;;;5077753;28;19924;-82
2021/08/20 09:38:13;;;;;;;;;;;18.60;99.90;;;;;;5077687;28;19925;-82
2021/08/20 09:40:50;;;;;;;;;;;18.60;99.90;;;;;;5077517;28;20367;-82
2021/08/20 09:43:23;;;;;;;;;;;18.60;99.90;;;;;;5084186;28;20009;-82
2021/08/20 09:46:01;;;;;;;;;;;18.70;99.90;;;;;;5096907;28;20381;-82
2021/08/20 09:48:42;;;;;;;;;;;18.70;99.90;;;;;;5097498;28;19924;-82
2021/08/20 09:51:11;;;;;;;;;;;18.70;99.90;;;;;;5097607;28;19934;-82
2021/08/20 09:53:40;;;;;;;;;;;18.80;99.90;;;;;;5097231;28;19924;-82
2021/08/20 09:56:10;;;;;;;;;;;18.80;99.90;;;;;;5096985;28;19928;-82
2021/08/20 09:58:39;;;;;;;;;;;18.90;99.90;;;;;;5096948;28;20007;-82
2021/08/20 10:01:07;;;;;;;;;;;18.90;99.90;;;;;;5097158;28;19924;-82
2021/08/20 10:03:35;;;;;;;;;;;19.00;99.90;;;;;;5097329;28;19935;-82
2021/08/20 10:06:02;;;;;;;;;;;19.10;99.90;;;;;;5097342;28;19935;-82
2021/08/20 10:08:31;;;;;;;;;;;19.10;99.90;;;;;;5097049;28;20272;-82
2021/08/20 10:10:59;;;;;;;;;;;19.20;99.90;;;;;;5097067;28;19924;-82
2021/08/20 10:13:29;;;;;;;;;;;19.20;99.90;;;;;;5096949;28;19932;-81
2021/08/20 10:16:00;;;;;;;;;;;19.30;99.90;;;;;;5097035;28;20344;-81
2021/08/20 10:18:29;;;;;;;;;;;19.40;99.90;;;;;;5097064;28;19924;-81
2021/08/20 10:20:57;;;;;;;;;;;19.40;99.90;;;;;;5096920;28;19924;-82
2021/08/20 10:23:25;;;;;;;;;;;19.50;99.90;;;;;;5096972;28;20336;-81
2021/08/20 10:25:54;;;;;;;;;;;19.40;99.90;;;;;;5096806;28;20372;-82
2021/08/20 10:28:22;;;;;;;;;;;19.40;99.90;;;;;;5096866;28;19935;-81
2021/08/20 10:30:50;;;;;;;;;;;19.40;99.90;;;;;;5096744;28;19923;-82
2021/08/20 10:33:29;;;;;;;;;;;19.50;99.90;;;;;;5096454;28;20687;-82
2021/08/20 10:35:57;;;;;;;;;;;19.50;99.90;;;;;;5096778;28;19935;-81
2021/08/20 10:38:29;;;;;;;;;;;19.50;99.90;;;;;;5096610;28;20374;-82
2021/08/20 10:41:13;;;;;;;;;;;19.50;99.90;;;;;;5095390;28;20340;-82
2021/08/20 10:43:53;;;;;;;;;;;19.50;99.90;;;;;;5096936;28;19924;-82
2021/08/20 10:46:39;;;;;;;;;;;19.70;99.90;;;;;;5096507;28;20279;-81
2021/08/20 10:49:21;;;;;;;;;;;19.70;99.90;;;;;;5095810;28;20314;-81
2021/08/20 10:52:01;;;;;;;;;;;19.90;99.90;;;;;;5095737;28;19928;-82
2021/08/20 10:54:59;;;;;;;;;;;19.90;99.90;;;;;;5095917;28;20355;-82
2021/08/20 10:57:49;;;;;;;;;;;19.90;99.90;;;;;;5014599;28;20268;-82
2021/08/20 11:00:23;;;;;;;;;;;19.90;99.90;;;;;;5014399;28;20337;-81
2021/08/20 11:02:51;;;;;;;;;;;19.90;99.90;;;;;;5014555;28;20013;-82
2021/08/20 11:05:25;;;;;;;;;;;19.90;99.90;;;;;;5014581;28;20346;-81
2021/08/20 11:07:53;;;;;;;;;;;20.00;99.90;;;;;;5013163;28;19929;-81
2021/08/20 11:10:33;;;;;;;;;;;20.00;99.90;;;;;;5014335;28;20429;-82
2021/08/20 11:13:02;;;;;;;;;;;19.90;99.90;;;;;;5014252;28;20368;-81
2021/08/20 11:15:51;;;;;;;;;;;19.90;99.90;;;;;;5014106;28;19931;-81
2021/08/20 11:18:26;;;;;;;;;;;19.90;99.90;;;;;;5010046;28;20289;-81
2021/08/20 11:21:09;;;;;;;;;;;19.90;99.90;;;;;;5013174;28;19940;-82
2021/08/20 11:23:40;;;;;;;;;;;20.00;99.90;;;;;;5014395;28;19925;-82
2021/08/20 11:26:10;;;;;;;;;;;20.00;99.90;;;;;;5014251;28;19936;-78
2021/08/20 11:28:40;;;;;;;;;;;20.10;99.90;;;;;;5013346;28;19937;-79
2021/08/20 11:31:07;;;;;;;;;;;20.20;99.90;;;;;;5014358;28;19925;-79
2021/08/20 11:33:35;;;;;;;;;;;20.20;99.90;;;;;;5068950;28;20286;-80
2021/08/20 11:36:05;;;;;;;;;;;20.20;99.90;;;;;;5095579;28;19946;-79
2021/08/20 11:38:36;;;;;;;;;;;20.20;99.90;;;;;;5095604;28;19928;-79
2021/08/20 11:41:09;;;;;;;;;;;20.20;99.90;;;;;;5095549;28;19924;-81
2021/08/20 11:43:38;;;;;;;;;;;20.30;99.90;;;;;;5095666;28;19930;-80
2021/08/20 11:46:09;;;;;;;;;;;20.40;99.90;;;;;;5095161;28;20271;-80
2021/08/20 11:48:45;;;;;;;;;;;20.50;99.90;;;;;;5095326;28;19958;-80
2021/08/20 11:51:12;;;;;;;;;;;20.50;99.90;;;;;;5095008;28;20367;-80
2021/08/20 11:53:43;;;;;;;;;;;20.40;99.90;;;;;;5077817;28;19924;-80
2021/08/20 11:56:12;;;;;;;;;;;20.50;99.90;;;;;;5094461;28;19924;-80
2021/08/20 11:58:41;;;;;;;;;;;20.50;99.90;;;;;;5092634;28;19951;-81
2021/08/20 12:01:11;;;;;;;;;;;20.50;99.90;;;;;;5095558;28;19931;-80
2021/08/20 12:03:50;;;;;;;;;;;20.60;99.90;;;;;;5095447;28;19942;-80
2021/08/20 12:06:18;;;;;;;;;;;20.70;99.90;;;;;;5095190;28;19924;-81
2021/08/20 12:08:52;;;;;;;;;;;20.70;99.90;;;;;;5095175;28;19924;-80
2021/08/20 12:11:20;;;;;;;;;;;20.70;99.90;;;;;;5091012;28;19925;-81
2021/08/20 12:13:49;;;;;;;;;;;20.70;99.90;;;;;;5073335;28;19925;-82
2021/08/20 12:16:39;;;;;;;;;;;20.60;99.90;;;;;;5074393;28;19924;-81
2021/08/20 12:19:22;;;;;;;;;;;20.60;99.90;;;;;;5074966;28;19925;-80
2021/08/20 12:21:50;;;;;;;;;;;20.50;99.90;;;;;;5074638;28;19925;-80
2021/08/20 12:24:31;;;;;;;;;;;20.50;99.90;;;;;;5074875;28;19924;-80
2021/08/20 12:27:15;;;;;;;;;;;20.50;99.90;;;;;;5074794;28;19925;-80
2021/08/20 12:29:46;;;;;;;;;;;20.40;99.90;;;;;;5074732;28;19924;-82
2021/08/20 12:32:20;;;;;;;;;;;20.30;99.90;;;;;;5074663;28;19946;-81
2021/08/20 12:37:32;;;;;;;;;;;20.30;99.90;;;;;;5075132;28;19925;-80
2021/08/20 12:40:06;;;;;;;;;;;20.30;99.90;;;;;;5074695;28;19935;-80
2021/08/20 12:42:34;;;;;;;;;;;20.30;99.90;;;;;;5074611;28;19939;-81
2021/08/20 12:45:09;;;;;;;;;;;20.30;99.90;;;;;;5074375;28;19924;-81
2021/08/20 12:47:36;;;;;;;;;;;20.30;99.90;;;;;;5074730;28;19979;-83
2021/08/20 12:50:06;;;;;;;;;;;20.20;99.90;;;;;;5074592;28;20382;-81
2021/08/20 12:52:34;;;;;;;;;;;20.10;99.90;;;;;;5074680;28;19928;-80
2021/08/20 12:55:21;;;;;;;;;;;20.10;99.90;;;;;;5074576;28;19935;-80
2021/08/20 12:57:50;;;;;;;;;;;20.10;99.90;;;;;;5074616;28;19929;-80
2021/08/20 13:00:21;;;;;;;;;;;20.10;99.90;;;;;;5074362;28;19925;-80
2021/08/20 13:02:50;;;;;;;;;;;20.20;99.90;;;;;;5074902;28;19939;-80
2021/08/20 13:05:18;;;;;;;;;;;20.30;99.90;;;;;;5078120;28;19986;-80
2021/08/20 13:07:46;;;;;;;;;;;20.50;99.90;;;;;;5077996;28;19924;-81
2021/08/20 13:10:14;;;;;;;;;;;20.60;99.90;;;;;;5078025;28;19924;-80
2021/08/20 13:12:43;;;;;;;;;;;20.70;99.90;;;;;;5077992;28;19925;-80
2021/08/20 13:15:12;;;;;;;;;;;20.80;99.90;;;;;;5078060;28;20363;-80
2021/08/20 13:17:39;;;;;;;;;;;21.00;99.90;;;;;;5077918;28;20418;-80
2021/08/20 13:20:06;;;;;;;;;;;21.00;99.90;;;;;;5077865;28;20433;-80
2021/08/20 13:22:34;;;;;;;;;;;21.10;99.90;;;;;;5078021;28;19935;-80
2021/08/20 13:25:01;;;;;;;;;;;21.10;99.90;;;;;;5077777;28;20407;-79
2021/08/20 13:27:28;;;;;;;;;;;21.20;99.90;;;;;;5077707;28;19925;-80
2021/08/20 13:29:55;;;;;;;2.23;0.80;;;21.30;99.90;;;;;;5075771;28;20418;-80
2021/08/20 13:32:23;;;;;;;;;;;21.40;99.90;;;;;;5077216;28;20304;-80
2021/08/20 13:34:50;;;;;;;;;;;21.40;99.90;;;;;;5077532;28;20341;-80
2021/08/20 13:37:16;;;;;;;;;;;21.40;99.90;;;;;;5077547;28;19935;-80
2021/08/20 13:39:43;;;;;;;;;;;21.30;99.90;;;;;;5077635;28;19935;-80
2021/08/20 13:42:10;;;;;;;;;;;21.30;99.90;;;;;;5077551;28;19929;-80
2021/08/20 13:44:38;;;;;;;;;;;21.20;99.90;;;;;;5077348;28;19924;-80
2021/08/20 13:47:05;;;;;;;;;;;21.00;99.90;;;;;;5077399;28;19990;-80
2021/08/20 13:49:33;;;;;;;;;;;20.90;99.90;;;;;;5077223;28;19935;-80
2021/08/20 13:52:00;;;;;;;;;;;20.70;99.90;;;;;;5077278;28;20272;-80
2021/08/20 13:54:27;;;;;;;;;;;20.60;99.90;;;;;;5077309;28;19925;-79
2021/08/20 13:56:53;;;;;;;;;;;20.60;99.90;;;;;;5077180;28;19929;-80
2021/08/20 13:59:20;;;;;;;;;;;20.40;99.90;;;;;;5077083;28;19924;-80
2021/08/20 14:01:48;;;;;;;;;;;20.40;99.90;;;;;;5076807;28;19925;-80
2021/08/20 14:04:16;;;;;;;;;;;20.40;99.90;;;;;;5077008;28;19925;-81
2021/08/20 14:06:46;;;;;;;;;;;20.40;99.90;;;;;;5077225;28;19935;-80
2021/08/20 14:09:14;;;;;;;;;;;20.40;99.90;;;;;;5076835;28;19931;-81
2021/08/20 14:11:42;;;;;;;;;;;20.40;99.90;;;;;;5076853;28;19924;-81
2021/08/20 14:14:10;;;;;;;;;;;20.40;99.90;;;;;;5076255;28;19925;-81
2021/08/20 14:16:38;;;;;;;;;;;20.40;99.90;;;;;;5076563;28;19924;-80
2021/08/20 14:19:06;;;;;;;;;;;20.40;99.90;;;;;;5076560;28;19934;-80
2021/08/20 14:21:34;;;;;;;;;;;20.40;99.90;;;;;;5076579;28;19951;-81